الجوف, السعودية

07:36 AM AST on أمتèبر 31, 2014 (GMT +0300)
Al Jouf | Change Station
CLOSE
Current Station
Airport
Location: Al-Jouf,
Elevation: 2260 ft
Nearby Weather Stations

Elev 2260 ft 29.79 °N, 40.10 °E | Updated 36 minutes ago

Clear
صافية
63 °F
Feels Like 63 °F
N
6
ريح متغير ريح from NW

هذا اليوم
High -- | Low -- °F
--% Chance of Precip.
Yesterday
High -- | Low -- °F
Precip. -- في
6:32 AM 5:33 PM
الهلال الأول, 51% visible
الضغط 29.95 في
وضوح الرؤية -9999.0 أميال
سحابات
نقطة الندى 46 °F
الرطوبة 55%
Rainfall 0.00 في
عمق الثلج Not available.
الأشعة فوق البنفسجية Not available.
Pollen Not available.
جودة الهواء Not available.
Flu Activity Not available.
METAR OESK 310400Z 31005KT CAVOK 17/08 Q1014 NOSIG

More Conditions Fewer Conditions

الضغط 29.95 في
وضوح الرؤية -9999.0 أميال
سحابات
نقطة الندى 46 °F
الرطوبة 55%
Rainfall 0.00 في
عمق الثلج Not available.
الأشعة فوق البنفسجية Not available.
Pollen Not available.
جودة الهواء Not available.
Flu Activity Not available.
METAR OESK 310400Z 31005KT CAVOK 17/08 Q1014 NOSIG

More Conditions Fewer Conditions

10-Day Weather Forecast

Almanac

علم الفلك

Oct. 31, 2014 Rise Set
Actual Time
Civil Twilight
Nautical Twilight
Astronomical Twilight
قمر
Length Of Visible Light
طول الیوم
Tomorrow will be .
, % of the Moon is Illuminated

Today's Extremes

Country Highs Country Lows

Community

WunderPhotos

Upload Photos

1,766,567 photos uploaded!

WunderBlogs® & News

Nearby

جودة الهواء

  جودة الهواء AQ Index Pollutant
Not available.

عمق الثلج

Station Depth Elevation

Earthquake Activity

City Distance Mag. Time & Date
Minimum magnitude displayed is 2.5.

Coastal Water Temperatures

مكان درجات الحرارة

Nearby Weather Stations